createdAt,value
2023-02-09T00:01:23.398Z,18.17
2023-02-09T00:03:53.348Z,21.45
2023-02-09T00:06:22.740Z,19.23
2023-02-09T00:08:50.738Z,18.83
2023-02-09T00:11:21.249Z,20.17
2023-02-09T00:13:47.885Z,20.77
2023-02-09T00:16:15.531Z,21.42
2023-02-09T00:18:43.210Z,20.77
2023-02-09T00:21:12.828Z,17.73
2023-02-09T00:23:42.320Z,19.55
2023-02-09T00:26:12.366Z,21.55
2023-02-09T00:28:43.258Z,23.20
2023-02-09T00:31:13.848Z,20.23
2023-02-09T00:33:42.034Z,20.23
2023-02-09T00:36:14.431Z,23.10
2023-02-09T00:38:44.924Z,23.13
2023-02-09T00:41:13.526Z,20.02
2023-02-09T00:43:41.990Z,19.58
2023-02-09T00:46:10.369Z,17.75
2023-02-09T00:48:38.092Z,20.08
2023-02-09T00:51:06.557Z,20.63
2023-02-09T00:53:37.930Z,18.42
2023-02-09T00:56:07.484Z,24.33
2023-02-09T00:58:35.093Z,20.42
2023-02-09T01:01:02.738Z,19.23
2023-02-09T01:03:30.375Z,20.38
2023-02-09T01:05:59.843Z,19.85
2023-02-09T01:08:28.711Z,18.60
2023-02-09T01:10:57.798Z,20.42
2023-02-09T01:13:25.484Z,19.60
2023-02-09T01:15:53.229Z,21.67
2023-02-09T01:18:20.762Z,22.70
2023-02-09T01:20:48.293Z,21.38
2023-02-09T01:23:16.166Z,20.55
2023-02-09T01:25:44.412Z,20.20
2023-02-09T01:28:13.311Z,20.17
2023-02-09T01:30:41.010Z,22.23
2023-02-09T01:33:08.732Z,21.80
2023-02-09T01:35:36.308Z,23.55
2023-02-09T01:38:03.838Z,24.80
2023-02-09T01:40:31.384Z,27.42
2023-02-09T01:42:59.018Z,23.90
2023-02-09T01:45:36.838Z,24.38
2023-02-09T01:48:04.851Z,22.52
2023-02-09T01:50:37.125Z,22.63
2023-02-09T01:53:05.096Z,14.75
2023-02-09T01:55:37.444Z,19.05
2023-02-09T01:58:11.539Z,17.53
2023-02-09T02:00:40.462Z,20.08
2023-02-09T02:03:12.020Z,19.48
2023-02-09T02:05:44.626Z,23.60
2023-02-09T02:08:17.523Z,20.52
2023-02-09T02:10:45.547Z,25.42
2023-02-09T02:13:13.464Z,21.27
2023-02-09T02:15:52.873Z,17.27
2023-02-09T02:18:32.899Z,22.05
2023-02-09T02:21:32.340Z,20.30
2023-02-09T02:24:19.560Z,20.52
2023-02-09T02:26:57.271Z,21.15
2023-02-09T02:29:52.385Z,21.02
2023-02-09T02:32:40.959Z,17.92
2023-02-09T02:35:17.142Z,23.73
2023-02-09T02:37:55.740Z,20.88
2023-02-09T02:40:32.486Z,23.10
2023-02-09T02:43:08.734Z,22.55
2023-02-09T02:45:42.596Z,19.25
2023-02-09T02:48:21.717Z,21.80
2023-02-09T02:50:55.359Z,19.58
2023-02-09T02:53:28.990Z,20.75
2023-02-09T02:56:01.589Z,21.92
2023-02-09T02:58:30.515Z,22.73
2023-02-09T03:01:01.233Z,23.10
2023-02-09T03:03:33.655Z,20.92
2023-02-09T03:06:04.589Z,23.20
2023-02-09T03:08:46.113Z,19.13
2023-02-09T03:11:13.768Z,18.20
2023-02-09T03:13:52.563Z,23.48
2023-02-09T03:16:30.020Z,23.52
2023-02-09T03:19:17.753Z,19.88
2023-02-09T03:21:52.841Z,20.05
2023-02-09T03:24:33.531Z,23.40
2023-02-09T03:27:07.711Z,18.55
2023-02-09T03:29:37.663Z,21.15
2023-02-09T03:32:05.673Z,22.02
2023-02-09T03:34:35.232Z,25.08
2023-02-09T03:37:02.913Z,20.70
2023-02-09T03:39:30.463Z,24.40
2023-02-09T03:41:58.040Z,31.48
2023-02-09T03:44:27.490Z,30.85
2023-02-09T03:46:56.810Z,23.48
2023-02-09T03:49:25.079Z,21.05
2023-02-09T03:51:54.468Z,21.60
2023-02-09T03:54:22.489Z,23.05
2023-02-09T03:56:50.271Z,20.73
2023-02-09T03:59:17.995Z,21.77
2023-02-09T04:01:45.552Z,20.40
2023-02-09T04:04:13.094Z,23.90
2023-02-09T04:06:40.735Z,23.70
2023-02-09T04:09:10.164Z,19.55
2023-02-09T04:11:37.756Z,22.15
2023-02-09T04:14:05.890Z,31.85
2023-02-09T04:16:33.941Z,34.67
2023-02-09T04:19:01.630Z,21.15
2023-02-09T04:21:29.207Z,24.45
2023-02-09T04:23:56.728Z,20.35
2023-02-09T04:26:25.631Z,20.35
2023-02-09T04:28:53.143Z,21.20
2023-02-09T04:31:20.830Z,19.92
2023-02-09T04:33:48.495Z,20.20
2023-02-09T04:36:16.223Z,19.83
2023-02-09T04:38:43.757Z,20.52
2023-02-09T04:41:11.341Z,18.17
2023-02-09T04:43:40.273Z,23.58
2023-02-09T04:46:13.177Z,21.10
2023-02-09T04:48:40.890Z,22.00
2023-02-09T04:51:08.547Z,21.17
2023-02-09T04:53:36.163Z,22.23
2023-02-09T04:56:03.958Z,20.85
2023-02-09T04:58:49.281Z,22.10
2023-02-09T05:01:20.959Z,22.42
2023-02-09T05:03:48.730Z,21.17
2023-02-09T05:06:16.361Z,21.90
2023-02-09T05:08:44.346Z,21.63
2023-02-09T05:11:12.521Z,21.85
2023-02-09T05:13:40.365Z,24.00
2023-02-09T05:16:08.767Z,22.35
2023-02-09T05:18:37.821Z,24.08
2023-02-09T05:21:05.654Z,24.42
2023-02-09T05:23:33.456Z,23.83
2023-02-09T05:26:01.064Z,21.10
2023-02-09T05:28:28.825Z,26.98
2023-02-09T05:30:56.492Z,22.77
2023-02-09T05:33:25.389Z,24.27
2023-02-09T05:35:56.607Z,23.13
2023-02-09T05:38:24.749Z,23.52
2023-02-09T05:40:52.357Z,24.52
2023-02-09T05:43:20.050Z,23.98
2023-02-09T05:45:47.728Z,27.13
2023-02-09T05:48:15.435Z,32.60
2023-02-09T05:50:43.201Z,23.70
2023-02-09T05:53:13.340Z,25.35
2023-02-09T05:55:43.405Z,23.67
2023-02-09T05:58:11.487Z,27.05
2023-02-09T06:00:39.125Z,27.35
2023-02-09T06:03:06.708Z,26.85
2023-02-09T06:05:34.279Z,26.60
2023-02-09T06:08:01.813Z,21.17
2023-02-09T06:10:30.708Z,28.95
2023-02-09T06:12:58.262Z,24.88
2023-02-09T06:15:25.872Z,25.48
2023-02-09T06:17:53.495Z,25.25
2023-02-09T06:20:21.115Z,22.88
2023-02-09T06:22:48.750Z,22.27
2023-02-09T06:25:16.432Z,24.48
2023-02-09T06:27:45.399Z,26.15
2023-02-09T06:30:14.007Z,26.50
2023-02-09T06:32:41.573Z,26.20
2023-02-09T06:35:09.433Z,24.33
2023-02-09T06:37:37.052Z,24.45
2023-02-09T06:40:05.309Z,24.60
2023-02-09T06:42:44.526Z,22.35
2023-02-09T06:45:15.346Z,23.50
2023-02-09T06:47:43.328Z,27.60
2023-02-09T06:50:11.699Z,23.63
2023-02-09T06:52:39.459Z,25.48
2023-02-09T06:55:07.949Z,25.35
2023-02-09T06:57:35.569Z,23.67
2023-02-09T07:00:04.333Z,22.50
2023-02-09T07:02:33.281Z,25.60
2023-02-09T07:05:00.912Z,24.65
2023-02-09T07:07:28.557Z,29.17
2023-02-09T07:09:56.091Z,30.52
2023-02-09T07:12:23.921Z,29.08
2023-02-09T07:14:51.445Z,26.15
2023-02-09T07:17:19.015Z,33.13
2023-02-09T07:19:47.877Z,32.08
2023-02-09T07:22:15.459Z,26.98
2023-02-09T07:24:43.023Z,29.13
2023-02-09T07:27:10.645Z,25.88
2023-02-09T07:29:38.249Z,30.60
2023-02-09T07:32:07.094Z,22.50
2023-02-09T07:34:35.295Z,31.23
2023-02-09T07:37:05.364Z,22.95
2023-02-09T07:39:33.156Z,26.17
2023-02-09T07:42:00.909Z,30.13
2023-02-09T07:44:45.428Z,25.75
2023-02-09T07:47:13.022Z,29.35
2023-02-09T07:49:40.667Z,28.67
2023-02-09T07:52:09.664Z,27.02
2023-02-09T07:54:37.200Z,27.98
2023-02-09T07:57:04.914Z,29.67
2023-02-09T07:59:32.478Z,29.38
2023-02-09T08:02:00.169Z,30.75
2023-02-09T08:04:27.845Z,28.77
2023-02-09T08:06:56.283Z,28.15
2023-02-09T08:09:25.975Z,31.25
2023-02-09T08:11:56.902Z,27.73
2023-02-09T08:14:28.462Z,26.05
2023-02-09T08:17:13.494Z,27.08
2023-02-09T08:19:41.705Z,29.50
2023-02-09T08:22:09.332Z,28.27
2023-02-09T08:24:38.306Z,28.65
2023-02-09T08:27:07.554Z,31.23
2023-02-09T08:29:35.244Z,25.35
2023-02-09T08:32:03.479Z,22.95
2023-02-09T08:34:31.110Z,25.67
2023-02-09T08:36:58.612Z,68.07
2023-02-09T08:39:26.151Z,42.13
2023-02-09T08:41:55.024Z,31.25
2023-02-09T08:44:22.661Z,28.60
2023-02-09T08:46:50.464Z,26.35
2023-02-09T08:49:18.174Z,23.23
2023-02-09T08:51:45.779Z,24.83
2023-02-09T08:54:13.362Z,23.55
2023-02-09T08:56:42.634Z,24.75
2023-02-09T08:59:12.436Z,22.65
2023-02-09T09:01:40.411Z,23.00
2023-02-09T09:04:08.487Z,55.95
2023-02-09T09:06:36.601Z,48.13
2023-02-09T09:09:04.322Z,24.83
2023-02-09T09:11:31.930Z,23.02
2023-02-09T09:13:59.772Z,24.92
2023-02-09T09:16:28.796Z,20.98
2023-02-09T09:18:56.402Z,22.77
2023-02-09T09:21:24.034Z,21.42
2023-02-09T09:23:51.713Z,24.45
2023-02-09T09:26:19.294Z,24.00
2023-02-09T09:28:50.447Z,21.90
2023-02-09T09:31:19.203Z,25.92
2023-02-09T09:33:48.437Z,21.45
2023-02-09T09:36:16.067Z,20.92
2023-02-09T09:38:43.737Z,20.42
2023-02-09T09:41:20.660Z,39.17
2023-02-09T09:43:48.566Z,32.38
2023-02-09T09:46:20.104Z,22.88
2023-02-09T09:48:52.859Z,21.45
2023-02-09T09:51:24.669Z,21.83
2023-02-09T09:53:56.384Z,24.85
2023-02-09T09:56:26.848Z,35.47
2023-02-09T09:58:54.798Z,29.08
2023-02-09T10:01:23.292Z,25.15
2023-02-09T10:03:52.483Z,27.92
2023-02-09T10:06:22.469Z,26.83
2023-02-09T10:08:54.697Z,23.75
2023-02-09T10:11:28.173Z,23.95
2023-02-09T10:13:57.179Z,24.38
2023-02-09T10:16:27.317Z,26.38
2023-02-09T10:18:58.378Z,23.25
2023-02-09T10:21:29.003Z,26.08
2023-02-09T10:24:11.665Z,24.55
2023-02-09T10:26:40.720Z,25.40
2023-02-09T10:29:23.242Z,26.95
2023-02-09T10:31:55.795Z,23.80
2023-02-09T10:34:31.727Z,22.77
2023-02-09T10:37:17.792Z,26.85
2023-02-09T10:39:46.476Z,24.95
2023-02-09T10:42:20.600Z,24.45
2023-02-09T10:44:50.554Z,23.48
2023-02-09T10:47:30.237Z,25.67
2023-02-09T10:50:14.769Z,26.08
2023-02-09T10:52:54.232Z,26.48
2023-02-09T10:55:25.421Z,23.27
2023-02-09T10:57:55.238Z,22.60
2023-02-09T11:00:30.024Z,26.23
2023-02-09T11:03:02.504Z,23.73
2023-02-09T11:05:34.307Z,25.10
2023-02-09T11:08:13.405Z,25.52
2023-02-09T11:10:46.249Z,27.70
2023-02-09T11:13:23.360Z,23.98
2023-02-09T11:16:20.518Z,26.02
2023-02-09T11:18:54.014Z,23.23
2023-02-09T11:21:31.497Z,25.67
2023-02-09T11:24:04.245Z,24.52
2023-02-09T11:26:40.095Z,23.00
2023-02-09T11:29:14.534Z,22.48
2023-02-09T11:31:53.528Z,25.45
2023-02-09T11:34:42.964Z,25.88
2023-02-09T11:37:28.887Z,22.75
2023-02-09T11:40:02.805Z,24.17
2023-02-09T11:42:47.039Z,24.40
2023-02-09T11:45:21.676Z,23.00
2023-02-09T11:47:57.739Z,21.83
2023-02-09T11:50:29.640Z,28.42
2023-02-09T11:53:02.622Z,23.48
2023-02-09T11:55:34.511Z,25.02
2023-02-09T11:58:13.616Z,26.30
2023-02-09T12:00:57.765Z,24.60
2023-02-09T12:03:29.480Z,27.55
2023-02-09T12:05:57.285Z,23.85
2023-02-09T12:08:50.628Z,25.42
2023-02-09T12:11:28.672Z,21.75
2023-02-09T12:14:09.701Z,23.92
2023-02-09T12:16:41.784Z,24.83
2023-02-09T12:19:25.875Z,24.83
2023-02-09T12:21:53.489Z,23.48
2023-02-09T12:24:40.271Z,23.52
2023-02-09T12:27:25.914Z,26.42
2023-02-09T12:29:53.549Z,23.60
2023-02-09T12:32:42.139Z,23.17
2023-02-09T12:35:28.199Z,21.25
2023-02-09T12:38:17.774Z,22.77
2023-02-09T12:41:02.626Z,22.10
2023-02-09T12:43:31.903Z,20.42
2023-02-09T12:46:19.953Z,21.73
2023-02-09T12:48:51.179Z,21.95
2023-02-09T12:51:45.333Z,21.85
2023-02-09T12:54:45.435Z,20.80
2023-02-09T12:57:52.307Z,18.45
2023-02-09T13:00:54.724Z,20.40
2023-02-09T13:03:26.227Z,19.23
2023-02-09T13:05:59.530Z,21.63
2023-02-09T13:08:45.830Z,20.80
2023-02-09T13:11:25.430Z,22.25
2023-02-09T13:13:56.990Z,22.33
2023-02-09T13:16:39.804Z,21.63
2023-02-09T13:19:18.762Z,22.00
2023-02-09T13:21:57.393Z,19.38
2023-02-09T13:24:36.242Z,20.65
2023-02-09T13:27:04.691Z,22.10
2023-02-09T13:29:33.096Z,20.52
2023-02-09T13:32:13.285Z,23.42
2023-02-09T13:34:48.144Z,20.63
2023-02-09T13:37:24.772Z,20.27
2023-02-09T13:40:00.685Z,18.95
2023-02-09T13:42:31.315Z,21.25
2023-02-09T13:45:00.342Z,20.88
2023-02-09T13:47:29.929Z,21.08
2023-02-09T13:50:00.222Z,20.40
2023-02-09T13:52:32.767Z,17.65
2023-02-09T13:55:12.894Z,19.30
2023-02-09T13:57:44.097Z,23.55
2023-02-09T14:00:24.270Z,23.30
2023-02-09T14:02:58.925Z,24.10
2023-02-09T14:05:37.074Z,22.20
2023-02-09T14:08:06.404Z,20.90
2023-02-09T14:10:36.812Z,21.73
2023-02-09T14:13:09.246Z,19.98
2023-02-09T14:15:59.468Z,23.27
2023-02-09T14:18:44.902Z,18.73
2023-02-09T14:21:27.050Z,19.02
2023-02-09T14:24:17.235Z,20.77
2023-02-09T14:26:59.826Z,18.45
2023-02-09T14:29:30.969Z,19.08
2023-02-09T14:32:01.807Z,18.92
2023-02-09T14:34:40.364Z,18.20
2023-02-09T14:37:29.574Z,19.98
2023-02-09T14:40:02.297Z,18.13
2023-02-09T14:42:31.983Z,20.40
2023-02-09T14:45:03.131Z,18.15
2023-02-09T14:47:40.904Z,14.68
2023-02-09T14:50:15.412Z,17.95
2023-02-09T14:52:47.180Z,16.73
2023-02-09T14:55:19.517Z,18.45
2023-02-09T14:57:49.127Z,17.13
2023-02-09T15:00:21.712Z,16.20
2023-02-09T15:02:51.767Z,16.45
2023-02-09T15:05:23.430Z,18.83
2023-02-09T15:07:55.971Z,15.70
2023-02-09T15:10:30.432Z,10.83
2023-02-09T15:13:00.844Z,15.68
2023-02-09T15:15:30.073Z,16.40
2023-02-09T15:18:01.245Z,15.20
2023-02-09T15:20:32.511Z,16.55
2023-02-09T15:23:02.329Z,16.05
2023-02-09T15:25:31.372Z,17.08
2023-02-09T15:28:03.244Z,19.20
2023-02-09T15:30:34.742Z,18.50
2023-02-09T15:33:03.997Z,18.77
2023-02-09T15:35:35.040Z,19.75
2023-02-09T15:38:03.432Z,18.02
2023-02-09T15:40:52.222Z,19.15
2023-02-09T15:43:39.378Z,17.65
2023-02-09T15:46:25.792Z,18.77
2023-02-09T15:48:53.606Z,18.15
2023-02-09T15:51:23.740Z,17.15
2023-02-09T15:53:52.014Z,16.25
2023-02-09T15:56:19.893Z,19.38
2023-02-09T15:58:51.120Z,21.75
2023-02-09T16:01:19.670Z,24.65
2023-02-09T16:03:47.575Z,26.88
2023-02-09T16:06:18.685Z,24.42
2023-02-09T16:08:53.333Z,26.33
2023-02-09T16:11:27.081Z,49.35
2023-02-09T16:16:25.955Z,33.40
2023-02-09T16:18:54.024Z,22.23
2023-02-09T16:21:26.090Z,35.67
2023-02-09T16:23:57.052Z,25.08
2023-02-09T16:26:26.281Z,19.13
2023-02-09T16:28:54.170Z,33.00
2023-02-09T16:31:22.613Z,21.58
2023-02-09T16:33:51.388Z,22.40
2023-02-09T16:36:21.592Z,17.52
2023-02-09T16:38:49.269Z,17.90
2023-02-09T16:41:37.435Z,18.33
2023-02-09T16:44:16.180Z,22.17
2023-02-09T16:46:44.164Z,19.75
2023-02-09T16:49:25.358Z,20.58
2023-02-09T16:51:53.025Z,21.02
2023-02-09T16:54:20.593Z,16.50
2023-02-09T16:56:54.657Z,17.65
2023-02-09T16:59:22.439Z,18.60
2023-02-09T17:01:50.228Z,21.65
2023-02-09T17:04:17.852Z,23.23
2023-02-09T17:06:50.441Z,19.85
2023-02-09T17:09:18.085Z,19.50
2023-02-09T17:11:45.651Z,17.85
2023-02-09T17:14:14.522Z,25.75
2023-02-09T17:16:49.394Z,33.85
2023-02-09T17:19:19.010Z,29.02
2023-02-09T17:21:47.143Z,27.50
2023-02-09T17:24:17.498Z,22.88
2023-02-09T17:26:45.533Z,21.50
2023-02-09T17:29:14.386Z,20.83
2023-02-09T17:31:52.745Z,25.00
2023-02-09T17:34:26.800Z,24.85
2023-02-09T17:36:54.612Z,24.65
2023-02-09T17:39:22.178Z,22.13
2023-02-09T17:41:49.978Z,21.23
2023-02-09T17:44:34.901Z,23.30
2023-02-09T17:47:07.038Z,26.17
2023-02-09T17:49:34.815Z,22.42
2023-02-09T17:52:02.344Z,22.00
2023-02-09T17:54:29.882Z,16.75
2023-02-09T17:56:57.502Z,19.10
2023-02-09T17:59:26.393Z,24.58
2023-02-09T18:01:56.066Z,34.47
2023-02-09T18:04:27.020Z,19.65
2023-02-09T18:06:56.674Z,20.73
2023-02-09T18:09:25.298Z,20.75
2023-02-09T18:11:59.581Z,19.52
2023-02-09T18:14:30.082Z,19.55
2023-02-09T18:16:58.039Z,21.48
2023-02-09T18:19:26.194Z,21.48
2023-02-09T18:21:55.520Z,21.60
2023-02-09T18:24:25.499Z,24.27
2023-02-09T18:26:53.155Z,22.15
2023-02-09T18:29:23.497Z,24.88
2023-02-09T18:31:52.675Z,24.55
2023-02-09T18:34:20.550Z,24.58
2023-02-09T18:36:48.194Z,23.95
2023-02-09T18:39:16.162Z,22.40
2023-02-09T18:41:46.289Z,23.80
2023-02-09T18:44:13.886Z,21.15
2023-02-09T18:46:43.451Z,24.73
2023-02-09T18:49:13.143Z,27.58
2023-02-09T18:51:40.722Z,24.23
2023-02-09T18:54:08.339Z,24.48
2023-02-09T18:56:35.887Z,29.85
2023-02-09T18:59:03.533Z,27.85
2023-02-09T19:01:31.295Z,25.58
2023-02-09T19:03:58.911Z,23.95
2023-02-09T19:06:27.810Z,25.67
2023-02-09T19:08:55.572Z,24.48
2023-02-09T19:11:24.554Z,24.80
2023-02-09T19:14:06.027Z,25.38
2023-02-09T19:16:33.573Z,25.83
2023-02-09T19:19:01.404Z,24.40
2023-02-09T19:21:31.711Z,25.20
2023-02-09T19:23:59.367Z,28.65
2023-02-09T19:26:26.988Z,28.38
2023-02-09T19:28:56.889Z,25.73
2023-02-09T19:31:24.630Z,29.02
2023-02-09T19:33:56.157Z,29.33
2023-02-09T19:36:24.308Z,26.48
2023-02-09T19:38:53.237Z,34.92
2023-02-09T19:41:23.241Z,35.47
2023-02-09T19:43:55.615Z,29.55
2023-02-09T19:46:23.210Z,30.43
2023-02-09T19:48:53.505Z,30.67
2023-02-09T19:51:21.190Z,32.03
2023-02-09T19:53:49.554Z,30.67
2023-02-09T19:56:20.620Z,33.75
2023-02-09T19:58:48.275Z,26.88
2023-02-09T20:01:16.251Z,28.05
2023-02-09T20:03:43.872Z,32.10
2023-02-09T20:06:14.729Z,33.78
2023-02-09T20:08:42.277Z,27.35
2023-02-09T20:11:11.820Z,25.33
2023-02-09T20:13:40.759Z,31.48
2023-02-09T20:16:09.944Z,29.60
2023-02-09T20:18:37.878Z,31.48
2023-02-09T20:21:08.207Z,32.85
2023-02-09T20:23:36.189Z,32.05
2023-02-09T20:26:10.287Z,27.23
2023-02-09T20:28:37.940Z,25.23
2023-02-09T20:31:07.284Z,26.15
2023-02-09T20:33:34.910Z,30.30
2023-02-09T20:36:05.700Z,27.88
2023-02-09T20:38:33.460Z,28.02
2023-02-09T20:41:01.092Z,28.92
2023-02-09T20:43:46.738Z,32.75
2023-02-09T20:46:38.616Z,32.22
2023-02-09T20:49:06.677Z,35.17
2023-02-09T20:51:34.250Z,30.95
2023-02-09T20:54:02.028Z,31.23
2023-02-09T20:56:30.259Z,28.27
2023-02-09T20:58:58.458Z,30.92
2023-02-09T21:01:27.381Z,29.70
2023-02-09T21:03:56.607Z,30.73
2023-02-09T21:06:24.304Z,28.02
2023-02-09T21:08:52.321Z,30.88
2023-02-09T21:11:20.436Z,30.13
2023-02-09T21:13:48.033Z,26.35
2023-02-09T21:16:16.503Z,29.13
2023-02-09T21:18:45.783Z,30.10
2023-02-09T21:21:16.543Z,27.45
2023-02-09T21:23:44.545Z,31.25
2023-02-09T21:26:14.455Z,28.92
2023-02-09T21:28:43.661Z,30.88
2023-02-09T21:31:12.271Z,29.98
2023-02-09T21:33:39.970Z,29.92
2023-02-09T21:36:09.980Z,33.78
2023-02-09T21:38:41.287Z,32.22
2023-02-09T21:41:30.337Z,33.72
2023-02-09T21:43:58.282Z,33.13
2023-02-09T21:46:26.061Z,32.03
2023-02-09T21:48:54.050Z,31.10
2023-02-09T21:51:23.673Z,30.25
2023-02-09T21:53:51.842Z,31.50
2023-02-09T21:56:20.091Z,28.88
2023-02-09T21:58:47.966Z,32.65
2023-02-09T22:01:15.657Z,31.35
2023-02-09T22:03:43.476Z,33.47
2023-02-09T22:06:11.937Z,29.33
2023-02-09T22:08:41.386Z,29.10
2023-02-09T22:11:09.076Z,31.90
2023-02-09T22:13:36.721Z,29.58
2023-02-09T22:16:06.984Z,32.13
2023-02-09T22:18:34.661Z,33.05
2023-02-09T22:21:02.739Z,41.05
2023-02-09T22:23:30.269Z,34.95
2023-02-09T22:26:00.851Z,34.97
2023-02-09T22:28:29.224Z,33.13
2023-02-09T22:30:57.355Z,32.47
2023-02-09T22:33:25.152Z,33.72
2023-02-09T22:35:52.804Z,31.45
2023-02-09T22:38:20.323Z,33.30
2023-02-09T22:40:47.838Z,31.75
2023-02-09T22:43:16.773Z,27.05
2023-02-09T22:45:44.494Z,32.00
2023-02-09T22:48:12.152Z,31.73
2023-02-09T22:50:39.727Z,31.75
2023-02-09T22:53:07.266Z,28.02
2023-02-09T22:55:34.867Z,27.30
2023-02-09T22:58:02.406Z,32.78
2023-02-09T23:00:31.434Z,25.92
2023-02-09T23:02:59.087Z,29.35
2023-02-09T23:05:26.694Z,32.53
2023-02-09T23:07:54.275Z,29.13
2023-02-09T23:10:22.478Z,29.45
2023-02-09T23:12:50.154Z,29.95
2023-02-09T23:15:18.300Z,32.40
2023-02-09T23:17:47.260Z,31.35
2023-02-09T23:20:14.812Z,34.22
2023-02-09T23:22:42.416Z,31.20
2023-02-09T23:25:09.962Z,33.85
2023-02-09T23:27:37.573Z,32.60
2023-02-09T23:30:05.578Z,32.70
2023-02-09T23:32:33.103Z,32.83
2023-02-09T23:35:02.221Z,33.80
2023-02-09T23:37:37.535Z,31.77
2023-02-09T23:40:06.051Z,31.98
2023-02-09T23:42:33.621Z,34.47
2023-02-09T23:45:01.317Z,30.67
2023-02-09T23:47:28.871Z,35.38
2023-02-09T23:49:57.019Z,29.02
2023-02-09T23:52:25.910Z,34.15
2023-02-09T23:54:53.500Z,30.48
2023-02-09T23:57:23.440Z,32.88
2023-02-09T23:59:51.019Z,32.67
